Airfield :
LOGIN :

Register | Disclaimer

   EN    FR    IT 

 










Legend :    VFR   Marginal VFR   IFR   Intensive IFR   Very Intensive IFR
Visi :
Ceiling :
>= 8 km
>= 3000ft
5 to 8 km
1000 to 3000 ft
1500m to 5 km
500 to 1000 ft
800 to 1500m
200 to 500 ft
< 800m
< 200 ft
Symbols :   Thunderstorms  Fog  Heavy snow  Heavy precipitations  Wind > 20 kt
SIGMETs :     Misc.  Thunderstorms  Icing  Turbulence  Mountain Waves  Volcanic Ashes







- Airport Elevation : 359 ft
- IATA code : BVA
- Download approach charts


LFOB - Beauvais

CURRENT METAR :
  • 270100Z AUTO 00000KT 8000 NSC 01/01 Q1033 NOSIG

EXPIRED METARs :
  • 270030Z AUTO 32002KT 9999 BKN049 01/01 Q1033 NOSIG
  • 270000Z AUTO 31003KT CAVOK 01/01 Q1033 TEMPO 2000 BCFG
  • 262330Z AUTO 31004KT CAVOK 02/01 Q1033 TEMPO 2000 BCFG
  • 262300Z AUTO 31006KT CAVOK 02/01 Q1033 NOSIG
  • 262230Z AUTO 31006KT CAVOK 03/02 Q1033 NOSIG

TAF TAF LFOB
Valid from the 27 at 00:00 until the 28 at 00:00 UTC


262300Z 2700/2724 VRB02KT CAVOK
PROB30 2700/2701 2000 BCFG
BECMG 2716/2718 36010KT
ATIS : +33 3 44 11 49 28
No reported NOTAMs for that airfield.



MET'MAP, your aeronautical weather chart ! - Copyright ORBIFLY December 2007 - Disclaimer

ORBIFLY MET'MAP TEAM :

Programming & Development : Alexandra Zaïnal
Concept & Development : Baudouin d'Aumeries
Co-Development & Prog : Marc-Olivier Méhu
Technical & hardware support : Manuel Goepfert

Contact : metmap@orbifly.com




SOURCES & CREDITS :

   NOAA